createdAt,value
2018-11-26T00:00:36.466Z,90.72
2018-11-26T00:03:09.497Z,90.29
2018-11-26T00:05:39.692Z,90.19
2018-11-26T00:08:27.538Z,90.54
2018-11-26T00:12:03.331Z,90.67
2018-11-26T00:14:32.564Z,90.44
2018-11-26T00:17:01.765Z,90.64
2018-11-26T00:19:31.015Z,90.55
2018-11-26T00:22:02.060Z,90.68
2018-11-26T00:24:31.294Z,90.13
2018-11-26T00:27:00.539Z,90.25
2018-11-26T00:29:29.700Z,90.20
2018-11-26T00:31:58.890Z,90.32
2018-11-26T00:34:28.225Z,90.53
2018-11-26T00:36:57.441Z,90.57
2018-11-26T00:39:26.636Z,90.03
2018-11-26T00:41:55.885Z,90.25
2018-11-26T00:44:25.055Z,89.92
2018-11-26T00:46:54.462Z,90.16
2018-11-26T00:49:23.711Z,89.91
2018-11-26T00:51:52.924Z,89.97
2018-11-26T00:54:22.138Z,90.05
2018-11-26T00:56:51.360Z,89.98
2018-11-26T00:59:20.626Z,90.25
2018-11-26T01:01:50.003Z,90.08
2018-11-26T01:04:19.225Z,90.47
2018-11-26T01:06:48.424Z,89.70
2018-11-26T01:09:17.637Z,89.57
2018-11-26T01:11:47.077Z,89.63
2018-11-26T01:14:16.360Z,89.57
2018-11-26T01:16:45.517Z,89.70
2018-11-26T01:19:14.672Z,90.13
2018-11-26T01:21:43.844Z,90.58
2018-11-26T01:24:13.080Z,91.21
2018-11-26T01:26:42.293Z,91.93
2018-11-26T01:29:11.552Z,91.92
2018-11-26T01:31:40.700Z,91.50
2018-11-26T01:34:09.908Z,91.80
2018-11-26T01:36:39.330Z,92.21
2018-11-26T01:39:09.575Z,92.54
2018-11-26T01:41:38.828Z,92.37
2018-11-26T01:44:08.032Z,92.47
2018-11-26T01:46:37.328Z,92.77
2018-11-26T01:49:06.620Z,92.40
2018-11-26T01:51:35.883Z,92.55
2018-11-26T01:54:05.105Z,92.65
2018-11-26T01:56:34.275Z,92.55
2018-11-26T01:59:03.472Z,92.89
2018-11-26T02:01:32.752Z,92.31
2018-11-26T02:04:02.071Z,92.39
2018-11-26T02:06:31.294Z,92.69
2018-11-26T02:09:00.477Z,92.40
2018-11-26T02:11:29.696Z,92.25
2018-11-26T02:13:58.939Z,92.18
2018-11-26T02:16:28.235Z,92.07
2018-11-26T02:18:57.882Z,92.16
2018-11-26T02:21:27.058Z,92.07
2018-11-26T02:23:56.284Z,91.54
2018-11-26T02:26:25.746Z,90.93
2018-11-26T02:28:55.112Z,90.91
2018-11-26T02:31:24.297Z,90.58
2018-11-26T02:33:53.499Z,90.70
2018-11-26T02:36:22.776Z,90.06
2018-11-26T02:38:52.052Z,90.37
2018-11-26T02:41:21.229Z,89.28
2018-11-26T02:43:50.547Z,90.18
2018-11-26T02:46:21.176Z,90.00
2018-11-26T02:48:50.464Z,89.81
2018-11-26T02:51:19.945Z,90.05
2018-11-26T02:53:49.142Z,90.37
2018-11-26T02:56:18.408Z,90.83
2018-11-26T02:58:47.626Z,90.84
2018-11-26T03:01:16.822Z,90.88
2018-11-26T03:03:46.104Z,90.58
2018-11-26T03:06:15.565Z,90.51
2018-11-26T03:08:44.781Z,89.74
2018-11-26T03:11:14.003Z,89.63
2018-11-26T03:13:43.189Z,89.49
2018-11-26T03:16:12.566Z,89.09
2018-11-26T03:18:41.797Z,89.01
2018-11-26T03:21:11.044Z,88.42
2018-11-26T03:23:40.294Z,88.52
2018-11-26T03:26:09.564Z,88.45
2018-11-26T03:28:39.364Z,88.22
2018-11-26T03:31:08.915Z,88.49
2018-11-26T03:33:38.205Z,88.74
2018-11-26T03:36:07.492Z,88.66
2018-11-26T03:38:58.070Z,89.27
2018-11-26T03:41:27.501Z,89.03
2018-11-26T03:43:56.741Z,88.67
2018-11-26T03:46:25.928Z,89.10
2018-11-26T03:50:24.308Z,89.43
2018-11-26T03:52:53.593Z,89.35
2018-11-26T03:55:22.771Z,89.73
2018-11-26T03:57:51.945Z,90.49
2018-11-26T04:00:21.445Z,89.97
2018-11-26T04:02:50.594Z,90.78
2018-11-26T04:05:19.902Z,90.66
2018-11-26T04:07:49.928Z,90.31
2018-11-26T04:10:19.130Z,90.61
2018-11-26T04:12:48.413Z,91.02
2018-11-26T04:15:17.645Z,90.52
2018-11-26T04:17:46.956Z,90.30
2018-11-26T04:20:16.252Z,91.03
2018-11-26T04:22:45.639Z,91.03
2018-11-26T04:25:17.319Z,91.21
2018-11-26T04:27:46.558Z,90.93
2018-11-26T04:30:15.814Z,91.33
2018-11-26T04:32:44.992Z,92.20
2018-11-26T04:35:14.339Z,92.41
2018-11-26T04:37:43.567Z,92.58
2018-11-26T04:40:12.798Z,91.97
2018-11-26T04:42:42.003Z,91.89
2018-11-26T04:45:11.325Z,92.08
2018-11-26T04:47:41.175Z,92.06
2018-11-26T04:50:11.548Z,92.16
2018-11-26T04:52:40.933Z,92.41
2018-11-26T04:55:11.325Z,92.85
2018-11-26T04:57:42.667Z,92.94
2018-11-26T05:00:11.703Z,93.29
2018-11-26T05:02:40.888Z,93.52
2018-11-26T05:05:11.440Z,93.58
2018-11-26T05:07:40.661Z,93.52
2018-11-26T05:10:11.578Z,93.77
2018-11-26T05:12:40.842Z,93.58
2018-11-26T05:15:12.198Z,93.92
2018-11-26T05:17:41.370Z,94.41
2018-11-26T05:20:14.473Z,94.17
2018-11-26T05:22:43.726Z,93.94
2018-11-26T05:25:13.090Z,93.89
2018-11-26T05:27:42.367Z,94.31
2018-11-26T05:30:12.637Z,94.60
2018-11-26T05:32:42.160Z,93.98
2018-11-26T05:35:16.028Z,94.38
2018-11-26T05:37:45.248Z,94.26
2018-11-26T05:40:15.285Z,94.60
2018-11-26T05:42:45.280Z,94.39
2018-11-26T05:45:15.706Z,94.32
2018-11-26T05:47:45.669Z,94.20
2018-11-26T05:50:15.962Z,94.84
2018-11-26T05:52:45.255Z,94.69
2018-11-26T05:55:17.218Z,94.43
2018-11-26T05:57:47.046Z,94.32
2018-11-26T06:00:26.354Z,94.38
2018-11-26T06:02:55.733Z,94.33
2018-11-26T06:05:25.064Z,94.32
2018-11-26T06:07:54.358Z,94.12
2018-11-26T06:10:23.788Z,94.35
2018-11-26T06:12:53.045Z,94.00
2018-11-26T06:15:22.312Z,94.43
2018-11-26T06:17:51.998Z,94.37
2018-11-26T06:20:21.166Z,94.25
2018-11-26T06:22:50.436Z,94.10
2018-11-26T06:25:20.844Z,94.16
2018-11-26T06:27:50.643Z,93.83
2018-11-26T06:30:20.480Z,94.15
2018-11-26T06:32:49.736Z,94.13
2018-11-26T06:35:21.951Z,94.05
2018-11-26T06:37:51.190Z,94.47
2018-11-26T06:40:21.151Z,94.32
2018-11-26T06:42:50.398Z,93.99
2018-11-26T06:45:22.025Z,94.23
2018-11-26T06:47:52.175Z,94.66
2018-11-26T06:50:22.050Z,94.41
2018-11-26T06:52:51.441Z,94.25
2018-11-26T06:55:21.739Z,94.05
2018-11-26T06:57:50.954Z,93.85
2018-11-26T07:00:21.074Z,93.66
2018-11-26T07:02:50.328Z,93.85
2018-11-26T07:05:21.671Z,93.96
2018-11-26T07:07:50.926Z,93.98
2018-11-26T07:10:21.639Z,94.04
2018-11-26T07:12:51.390Z,93.86
2018-11-26T07:15:21.968Z,94.15
2018-11-26T07:17:51.549Z,94.33
2018-11-26T07:20:22.379Z,93.74
2018-11-26T07:22:51.682Z,94.39
2018-11-26T07:25:21.874Z,94.36
2018-11-26T07:27:53.672Z,94.09
2018-11-26T07:30:25.214Z,94.17
2018-11-26T07:32:54.489Z,94.27
2018-11-26T07:35:23.892Z,94.15
2018-11-26T07:37:53.226Z,93.85
2018-11-26T07:40:31.516Z,93.59
2018-11-26T07:43:09.935Z,93.81
2018-11-26T07:45:45.963Z,93.36
2018-11-26T07:48:23.473Z,93.75
2018-11-26T07:50:53.090Z,93.35
2018-11-26T07:53:22.549Z,93.57
2018-11-26T07:55:52.022Z,93.44
2018-11-26T07:58:21.632Z,93.60
2018-11-26T08:00:51.257Z,93.74
2018-11-26T08:03:20.840Z,93.87
2018-11-26T08:05:50.346Z,93.10
2018-11-26T08:08:19.773Z,93.48
2018-11-26T08:10:49.249Z,93.29
2018-11-26T08:13:19.123Z,93.69
2018-11-26T08:15:48.522Z,93.41
2018-11-26T08:21:38.753Z,92.99
2018-11-26T08:24:08.154Z,92.60
2018-11-26T08:26:37.995Z,92.73
2018-11-26T08:29:10.785Z,92.24
2018-11-26T08:31:41.699Z,91.90
2018-11-26T08:34:11.316Z,92.36
2018-11-26T08:36:44.383Z,92.40
2018-11-26T08:39:19.485Z,91.55
2018-11-26T08:41:54.451Z,91.42
2018-11-26T08:44:30.474Z,91.40
2018-11-26T08:47:08.266Z,90.78
2018-11-26T08:49:42.979Z,91.18
2018-11-26T08:52:40.406Z,90.84
2018-11-26T08:55:12.721Z,90.63
2018-11-26T08:57:42.691Z,91.04
2018-11-26T09:00:14.649Z,90.51
2018-11-26T09:02:48.846Z,91.13
2018-11-26T09:05:24.233Z,90.96
2018-11-26T09:07:53.341Z,91.13
2018-11-26T09:10:30.741Z,90.76
2018-11-26T09:13:01.912Z,91.21
2018-11-26T09:15:33.803Z,90.90
2018-11-26T09:18:03.870Z,90.64
2018-11-26T09:20:34.845Z,90.69
2018-11-26T09:23:04.821Z,90.99
2018-11-26T09:25:35.598Z,90.80
2018-11-26T09:28:06.102Z,90.52
2018-11-26T09:30:42.622Z,91.02
2018-11-26T09:33:14.194Z,90.79
2018-11-26T09:35:44.942Z,90.85
2018-11-26T09:38:17.355Z,89.86
2018-11-26T09:40:49.021Z,89.27
2018-11-26T09:43:18.674Z,89.01
2018-11-26T09:45:52.124Z,88.38
2018-11-26T09:48:29.819Z,89.66
2018-11-26T09:51:14.122Z,89.58
2018-11-26T09:53:49.070Z,90.04
2018-11-26T09:56:25.151Z,89.94
2018-11-26T09:58:55.743Z,90.39
2018-11-26T10:01:28.937Z,90.33
2018-11-26T10:04:00.815Z,90.80
2018-11-26T10:06:31.362Z,90.97
2018-11-26T10:09:00.895Z,90.89
2018-11-26T10:11:36.658Z,90.70
2018-11-26T10:14:08.904Z,90.27
2018-11-26T10:16:40.722Z,89.71
2018-11-26T10:19:11.909Z,89.26
2018-11-26T10:21:42.345Z,89.88
2018-11-26T10:24:13.009Z,89.84
2018-11-26T10:26:42.888Z,89.40
2018-11-26T10:29:12.924Z,89.29
2018-11-26T10:31:44.488Z,88.34
2018-11-26T10:34:14.511Z,87.80
2018-11-26T10:36:44.832Z,88.13
2018-11-26T10:39:14.327Z,87.56
2018-11-26T10:41:46.040Z,86.88
2018-11-26T10:44:15.600Z,86.93
2018-11-26T10:46:45.139Z,86.65
2018-11-26T10:49:18.284Z,86.58
2018-11-26T10:52:01.171Z,86.37
2018-11-26T10:54:31.712Z,85.70
2018-11-26T10:57:01.183Z,85.88
2018-11-26T10:59:30.543Z,85.46
2018-11-26T11:02:07.117Z,85.59
2018-11-26T11:04:38.277Z,85.26
2018-11-26T11:07:09.059Z,85.47
2018-11-26T11:09:38.595Z,85.75
2018-11-26T11:12:10.423Z,85.02
2018-11-26T11:14:40.670Z,85.06
2018-11-26T11:17:10.687Z,85.24
2018-11-26T11:19:41.932Z,84.66
2018-11-26T11:22:11.652Z,84.22
2018-11-26T11:24:41.434Z,84.68
2018-11-26T11:27:11.139Z,84.31
2018-11-26T11:29:40.790Z,84.10
2018-11-26T11:32:10.314Z,84.08
2018-11-26T11:34:39.823Z,84.31
2018-11-26T11:37:09.604Z,84.05
2018-11-26T11:39:39.033Z,83.87
2018-11-26T11:42:08.721Z,84.20
2018-11-26T11:44:38.272Z,83.60
2018-11-26T11:47:07.734Z,83.68
2018-11-26T11:49:37.283Z,84.12
2018-11-26T11:52:06.679Z,84.15
2018-11-26T11:54:36.198Z,83.97
2018-11-26T11:57:05.937Z,83.75
2018-11-26T11:59:35.413Z,84.48
2018-11-26T12:02:04.916Z,84.23
2018-11-26T12:04:35.483Z,84.17
2018-11-26T12:07:05.019Z,84.17
2018-11-26T12:09:34.466Z,83.82
2018-11-26T12:15:17.006Z,84.17
2018-11-26T12:17:48.090Z,84.60
2018-11-26T12:20:18.167Z,84.89
2018-11-26T12:22:48.650Z,84.57
2018-11-26T12:25:19.282Z,84.02
2018-11-26T12:27:50.064Z,84.13
2018-11-26T12:30:34.887Z,83.85
2018-11-26T12:33:26.587Z,83.99
2018-11-26T12:35:59.225Z,83.88
2018-11-26T12:38:36.386Z,83.82
2018-11-26T12:41:16.437Z,84.09
2018-11-26T12:43:49.387Z,83.54
2018-11-26T12:46:19.309Z,83.70
2018-11-26T12:48:52.727Z,84.06
2018-11-26T12:51:22.527Z,82.97
2018-11-26T12:56:48.652Z,83.25
2018-11-26T12:59:18.832Z,83.37
2018-11-26T13:01:50.126Z,82.61
2018-11-26T13:04:20.684Z,82.60
2018-11-26T13:06:54.423Z,83.07
2018-11-26T13:09:24.469Z,83.00
2018-11-26T13:11:58.053Z,83.35
2018-11-26T13:14:40.216Z,83.50
2018-11-26T13:17:10.314Z,83.70
2018-11-26T13:19:42.228Z,83.70
2018-11-26T13:22:13.499Z,83.89
2018-11-26T13:24:43.358Z,83.87
2018-11-26T13:27:12.830Z,83.38
2018-11-26T13:29:42.410Z,84.10
2018-11-26T13:32:11.996Z,84.50
2018-11-26T13:37:51.304Z,85.91
2018-11-26T13:40:21.231Z,86.51
2018-11-26T13:42:51.605Z,86.76
2018-11-26T13:45:35.247Z,85.76
2018-11-26T13:48:09.452Z,84.37
2018-11-26T13:50:43.653Z,84.33
2018-11-26T13:53:16.801Z,83.60
2018-11-26T13:55:49.043Z,82.53
2018-11-26T13:58:22.123Z,81.80
2018-11-26T14:00:53.541Z,81.73
2018-11-26T14:03:23.520Z,82.27
2018-11-26T14:05:54.946Z,82.37
2018-11-26T14:08:25.726Z,82.24
2018-11-26T14:10:57.031Z,82.71
2018-11-26T14:13:27.650Z,82.31
2018-11-26T14:15:59.060Z,82.64
2018-11-26T14:24:33.189Z,82.29
2018-11-26T14:27:08.428Z,81.96
2018-11-26T14:29:39.057Z,82.18
2018-11-26T14:32:09.836Z,82.56
2018-11-26T14:34:39.962Z,82.91
2018-11-26T14:37:13.237Z,82.53
2018-11-26T14:39:45.509Z,83.31
2018-11-26T14:45:15.137Z,82.68
2018-11-26T14:47:47.394Z,82.17
2018-11-26T14:50:17.692Z,82.14
2018-11-26T14:52:48.169Z,82.31
2018-11-26T14:55:28.220Z,82.61
2018-11-26T14:58:09.816Z,83.49
2018-11-26T15:00:43.307Z,82.95
2018-11-26T15:06:10.757Z,82.34
2018-11-26T15:08:41.565Z,82.61
2018-11-26T15:11:11.501Z,82.42
2018-11-26T15:13:41.444Z,81.98
2018-11-26T15:16:11.084Z,81.78
2018-11-26T15:18:41.823Z,81.52
2018-11-26T15:21:11.810Z,81.29
2018-11-26T15:32:47.619Z,81.48
2018-11-26T15:35:20.914Z,81.60
2018-11-26T15:37:50.811Z,80.94
2018-11-26T15:40:21.365Z,80.94
2018-11-26T15:42:53.194Z,81.32
2018-11-26T15:45:29.185Z,80.81
2018-11-26T15:48:01.038Z,81.16
2018-11-26T15:50:35.303Z,80.94
2018-11-26T15:53:09.958Z,80.55
2018-11-26T15:55:39.890Z,80.88
2018-11-26T15:58:10.971Z,80.91
2018-11-26T16:00:41.887Z,80.91
2018-11-26T16:03:13.047Z,81.05
2018-11-26T16:05:42.827Z,81.12
2018-11-26T16:08:23.153Z,81.12
2018-11-26T16:10:54.694Z,81.53
2018-11-26T16:13:27.691Z,80.92
2018-11-26T16:16:01.379Z,81.36
2018-11-26T16:18:32.178Z,81.15
2018-11-26T16:21:03.263Z,81.10
2018-11-26T16:23:33.486Z,81.06
2018-11-26T16:26:04.299Z,81.08
2018-11-26T16:28:34.509Z,81.18
2018-11-26T16:31:05.299Z,80.93
2018-11-26T16:36:36.314Z,81.33
2018-11-26T16:39:10.026Z,80.72
2018-11-26T16:41:39.965Z,81.11
2018-11-26T16:44:09.931Z,81.64
2018-11-26T16:46:42.106Z,81.19
2018-11-26T16:49:12.763Z,81.61
2018-11-26T16:51:48.092Z,81.70
2018-11-26T16:54:23.764Z,81.09
2018-11-26T16:59:53.877Z,81.39
2018-11-26T17:02:23.531Z,81.58
2018-11-26T17:04:54.449Z,82.25
2018-11-26T17:07:33.546Z,82.62
2018-11-26T17:10:15.916Z,82.74
2018-11-26T17:12:46.119Z,82.66
2018-11-26T17:15:17.319Z,83.14
2018-11-26T17:17:47.728Z,82.86
2018-11-26T17:20:26.054Z,82.51
2018-11-26T17:22:56.529Z,82.35
2018-11-26T17:25:26.046Z,82.45
2018-11-26T17:27:55.664Z,82.08
2018-11-26T17:30:26.472Z,81.83
2018-11-26T17:32:58.674Z,81.66
2018-11-26T17:35:29.082Z,81.22
2018-11-26T17:37:58.521Z,81.42
2018-11-26T17:40:36.218Z,81.12
2018-11-26T17:43:10.425Z,81.61
2018-11-26T17:47:04.513Z,81.21
2018-11-26T17:49:36.133Z,80.90
2018-11-26T17:52:06.918Z,81.32
2018-11-26T17:54:37.871Z,80.93
2018-11-26T17:57:09.521Z,81.21
2018-11-26T17:59:41.622Z,81.09
2018-11-26T18:02:11.004Z,80.92
2018-11-26T18:04:40.677Z,80.96
2018-11-26T18:07:10.993Z,81.14
2018-11-26T18:09:40.807Z,80.71
2018-11-26T18:12:10.287Z,80.69
2018-11-26T18:14:39.896Z,81.02
2018-11-26T18:17:10.867Z,80.95
2018-11-26T18:19:41.395Z,80.89
2018-11-26T18:22:18.113Z,81.05
2018-11-26T18:24:47.769Z,80.52
2018-11-26T18:27:18.464Z,80.39
2018-11-26T18:29:48.868Z,80.75
2018-11-26T18:32:19.154Z,80.36
2018-11-26T18:34:49.740Z,81.06
2018-11-26T18:37:19.082Z,80.64
2018-11-26T18:39:49.104Z,80.78
2018-11-26T18:42:20.582Z,80.11
2018-11-26T18:44:50.124Z,80.32
2018-11-26T18:47:21.517Z,80.21
2018-11-26T18:49:50.914Z,80.01
2018-11-26T18:52:20.447Z,80.11
2018-11-26T18:54:51.272Z,80.25
2018-11-26T18:57:20.815Z,80.46
2018-11-26T18:59:53.020Z,80.00
2018-11-26T19:02:23.577Z,80.37
2018-11-26T19:04:54.202Z,80.62
2018-11-26T19:07:24.428Z,80.44
2018-11-26T19:09:54.507Z,80.07
2018-11-26T19:12:23.915Z,81.05
2018-11-26T19:14:54.567Z,80.54
2018-11-26T19:17:23.928Z,81.05
2018-11-26T19:19:53.202Z,80.78
2018-11-26T19:22:22.591Z,81.29
2018-11-26T19:24:52.308Z,81.58
2018-11-26T19:27:22.460Z,81.66
2018-11-26T19:29:53.892Z,82.05
2018-11-26T19:32:24.420Z,82.14
2018-11-26T19:34:55.377Z,82.35
2018-11-26T19:37:24.855Z,82.28
2018-11-26T19:39:54.384Z,82.68
2018-11-26T19:42:31.011Z,81.74
2018-11-26T19:45:00.629Z,81.91
2018-11-26T19:47:30.241Z,81.41
2018-11-26T19:50:02.327Z,82.02
2018-11-26T19:52:29.080Z,82.06
2018-11-26T19:54:58.436Z,81.80
2018-11-26T19:57:27.805Z,82.36
2018-11-26T19:59:58.841Z,82.61
2018-11-26T20:02:28.230Z,82.74
2018-11-26T20:05:01.338Z,82.75
2018-11-26T20:07:30.938Z,82.97
2018-11-26T20:10:00.792Z,82.71
2018-11-26T20:12:30.159Z,83.12
2018-11-26T20:14:59.798Z,82.97
2018-11-26T20:17:30.662Z,83.10
2018-11-26T20:20:00.241Z,83.27
2018-11-26T20:22:29.872Z,82.78
2018-11-26T20:25:00.388Z,82.95
2018-11-26T20:27:29.787Z,83.29
2018-11-26T20:29:59.451Z,83.65
2018-11-26T20:32:30.320Z,82.75
2018-11-26T20:34:58.507Z,83.14
2018-11-26T20:37:29.394Z,82.81
2018-11-26T20:40:09.655Z,82.97
2018-11-26T20:42:42.950Z,83.46
2018-11-26T20:45:15.802Z,82.62
2018-11-26T20:47:48.076Z,82.46
2018-11-26T20:50:19.250Z,82.80
2018-11-26T20:52:50.147Z,82.30
2018-11-26T20:55:23.958Z,83.12
2018-11-26T20:57:54.724Z,82.87
2018-11-26T21:00:27.577Z,82.36
2018-11-26T21:03:04.251Z,82.61
2018-11-26T21:05:33.886Z,82.18
2018-11-26T21:08:03.406Z,82.72
2018-11-26T21:10:32.865Z,81.98
2018-11-26T21:13:02.502Z,82.35
2018-11-26T21:15:33.316Z,82.14
2018-11-26T21:18:07.361Z,82.99
2018-11-26T21:20:38.709Z,82.82
2018-11-26T21:23:11.616Z,82.96
2018-11-26T21:25:41.412Z,83.69
2018-11-26T21:28:13.433Z,83.63
2018-11-26T21:30:43.258Z,83.17
2018-11-26T21:33:13.767Z,83.46
2018-11-26T21:35:43.311Z,84.12
2018-11-26T21:38:13.214Z,84.82
2018-11-26T21:40:47.268Z,84.21
2018-11-26T21:43:18.267Z,84.00
2018-11-26T21:45:58.606Z,84.44
2018-11-26T21:48:28.945Z,85.46
2018-11-26T21:50:58.878Z,85.22
2018-11-26T21:53:28.777Z,85.17
2018-11-26T21:55:58.087Z,86.12
2018-11-26T21:58:35.592Z,85.65
2018-11-26T22:01:08.564Z,85.66
2018-11-26T22:03:39.178Z,86.16
2018-11-26T22:06:08.595Z,85.07
2018-11-26T22:08:38.093Z,85.27
2018-11-26T22:11:09.178Z,85.27
2018-11-26T22:13:38.860Z,86.23
2018-11-26T22:16:08.280Z,85.69
2018-11-26T22:18:37.922Z,85.03
2018-11-26T22:21:07.464Z,86.19
2018-11-26T22:23:36.878Z,85.21
2018-11-26T22:26:06.445Z,85.83
2018-11-26T22:28:36.437Z,85.02
2018-11-26T22:31:09.009Z,85.50
2018-11-26T22:33:38.521Z,85.72
2018-11-26T22:36:08.884Z,85.09
2018-11-26T22:38:38.907Z,84.95
2018-11-26T22:41:08.252Z,84.85
2018-11-26T22:43:39.149Z,84.83
2018-11-26T22:46:09.337Z,84.81
2018-11-26T22:48:38.742Z,84.20
2018-11-26T22:51:08.200Z,84.08
2018-11-26T22:53:37.574Z,83.09
2018-11-26T22:56:08.000Z,82.97
2018-11-26T22:58:37.321Z,83.42
2018-11-26T23:01:08.033Z,83.45
2018-11-26T23:03:37.481Z,83.44
2018-11-26T23:06:08.171Z,82.75
2018-11-26T23:08:37.567Z,81.75
2018-11-26T23:11:07.586Z,82.36
2018-11-26T23:13:36.919Z,81.66
2018-11-26T23:16:07.418Z,82.01
2018-11-26T23:18:36.971Z,82.07
2018-11-26T23:21:06.403Z,82.28
2018-11-26T23:23:35.874Z,83.18
2018-11-26T23:26:05.496Z,83.36
2018-11-26T23:28:35.554Z,84.15
2018-11-26T23:31:05.608Z,83.97
2018-11-26T23:33:39.873Z,83.97
2018-11-26T23:36:09.229Z,83.59
2018-11-26T23:38:39.524Z,83.63
2018-11-26T23:41:09.234Z,83.56
2018-11-26T23:43:38.691Z,83.62
2018-11-26T23:46:09.772Z,83.06
2018-11-26T23:48:40.586Z,83.03
2018-11-26T23:51:10.431Z,83.24
2018-11-26T23:53:39.797Z,83.32
2018-11-26T23:56:09.253Z,83.33
2018-11-26T23:58:39.402Z,82.74
